sensor_id;sensor_type;location;lat;lon;timestamp;P1;durP1;ratioP1;P2;durP2;ratioP2
3677;SDS011;1855;50.934;6.958;2023-03-11T00:00:52;3.58;;;1.70;;
3677;SDS011;1855;50.934;6.958;2023-03-11T00:03:19;5.13;;;1.90;;
3677;SDS011;1855;50.934;6.958;2023-03-11T00:05:50;4.90;;;1.98;;
3677;SDS011;1855;50.934;6.958;2023-03-11T00:08:19;4.65;;;1.80;;
3677;SDS011;1855;50.934;6.958;2023-03-11T00:10:50;5.05;;;2.15;;
3677;SDS011;1855;50.934;6.958;2023-03-11T00:13:19;6.10;;;2.00;;
3677;SDS011;1855;50.934;6.958;2023-03-11T00:15:46;6.03;;;2.15;;
3677;SDS011;1855;50.934;6.958;2023-03-11T00:18:15;4.93;;;1.90;;
3677;SDS011;1855;50.934;6.958;2023-03-11T00:20:43;4.13;;;1.85;;
3677;SDS011;1855;50.934;6.958;2023-03-11T00:23:13;7.72;;;2.30;;
3677;SDS011;1855;50.934;6.958;2023-03-11T00:25:41;5.60;;;2.25;;
3677;SDS011;1855;50.934;6.958;2023-03-11T00:28:09;4.30;;;2.20;;
3677;SDS011;1855;50.934;6.958;2023-03-11T00:30:36;4.97;;;2.50;;
3677;SDS011;1855;50.934;6.958;2023-03-11T00:33:05;4.40;;;2.10;;
3677;SDS011;1855;50.934;6.958;2023-03-11T00:35:33;7.20;;;2.08;;
3677;SDS011;1855;50.934;6.958;2023-03-11T00:38:01;3.97;;;2.20;;
3677;SDS011;1855;50.934;6.958;2023-03-11T00:40:31;4.60;;;2.30;;
3677;SDS011;1855;50.934;6.958;2023-03-11T00:42:59;4.85;;;1.98;;
3677;SDS011;1855;50.934;6.958;2023-03-11T00:45:27;5.50;;;1.90;;
3677;SDS011;1855;50.934;6.958;2023-03-11T00:47:54;4.22;;;2.13;;
3677;SDS011;1855;50.934;6.958;2023-03-11T00:50:21;3.90;;;2.40;;
3677;SDS011;1855;50.934;6.958;2023-03-11T00:52:50;5.00;;;2.47;;
3677;SDS011;1855;50.934;6.958;2023-03-11T00:55:17;4.60;;;2.15;;
3677;SDS011;1855;50.934;6.958;2023-03-11T00:57:48;5.30;;;2.40;;
3677;SDS011;1855;50.934;6.958;2023-03-11T01:00:20;4.47;;;2.08;;
3677;SDS011;1855;50.934;6.958;2023-03-11T01:02:48;5.35;;;2.00;;
3677;SDS011;1855;50.934;6.958;2023-03-11T01:05:17;6.32;;;2.22;;
3677;SDS011;1855;50.934;6.958;2023-03-11T01:07:45;5.82;;;2.15;;
3677;SDS011;1855;50.934;6.958;2023-03-11T01:10:12;4.78;;;2.28;;
3677;SDS011;1855;50.934;6.958;2023-03-11T01:12:38;4.95;;;2.40;;
3677;SDS011;1855;50.934;6.958;2023-03-11T01:15:08;7.10;;;2.20;;
3677;SDS011;1855;50.934;6.958;2023-03-11T01:17:39;4.80;;;2.35;;
3677;SDS011;1855;50.934;6.958;2023-03-11T01:20:07;6.47;;;2.50;;
3677;SDS011;1855;50.934;6.958;2023-03-11T01:22:35;6.30;;;2.70;;
3677;SDS011;1855;50.934;6.958;2023-03-11T01:25:01;3.60;;;2.15;;
3677;SDS011;1855;50.934;6.958;2023-03-11T01:27:28;4.72;;;1.80;;
3677;SDS011;1855;50.934;6.958;2023-03-11T01:29:55;3.95;;;1.85;;
3677;SDS011;1855;50.934;6.958;2023-03-11T01:32:23;5.55;;;2.00;;
3677;SDS011;1855;50.934;6.958;2023-03-11T01:34:50;6.40;;;2.20;;
3677;SDS011;1855;50.934;6.958;2023-03-11T01:37:17;5.68;;;2.17;;
3677;SDS011;1855;50.934;6.958;2023-03-11T01:39:44;5.05;;;2.20;;
3677;SDS011;1855;50.934;6.958;2023-03-11T01:42:11;4.25;;;2.08;;
3677;SDS011;1855;50.934;6.958;2023-03-11T01:44:37;3.58;;;1.80;;
3677;SDS011;1855;50.934;6.958;2023-03-11T01:50:06;6.13;;;1.90;;
3677;SDS011;1855;50.934;6.958;2023-03-11T01:52:37;5.00;;;2.00;;
3677;SDS011;1855;50.934;6.958;2023-03-11T01:55:04;6.80;;;1.90;;
3677;SDS011;1855;50.934;6.958;2023-03-11T01:57:32;5.38;;;2.30;;
3677;SDS011;1855;50.934;6.958;2023-03-11T01:59:59;5.28;;;1.95;;
3677;SDS011;1855;50.934;6.958;2023-03-11T02:02:30;6.70;;;2.10;;
3677;SDS011;1855;50.934;6.958;2023-03-11T02:05:02;6.93;;;2.10;;
3677;SDS011;1855;50.934;6.958;2023-03-11T02:07:29;5.28;;;1.80;;
3677;SDS011;1855;50.934;6.958;2023-03-11T02:09:57;4.03;;;1.75;;
3677;SDS011;1855;50.934;6.958;2023-03-11T02:12:23;6.18;;;1.70;;
3677;SDS011;1855;50.934;6.958;2023-03-11T02:14:53;5.75;;;2.40;;
3677;SDS011;1855;50.934;6.958;2023-03-11T02:17:20;5.97;;;2.40;;
3677;SDS011;1855;50.934;6.958;2023-03-11T02:19:51;6.47;;;2.10;;
3677;SDS011;1855;50.934;6.958;2023-03-11T02:22:26;5.90;;;2.30;;
3677;SDS011;1855;50.934;6.958;2023-03-11T02:24:58;5.50;;;2.10;;
3677;SDS011;1855;50.934;6.958;2023-03-11T02:27:31;9.15;;;2.58;;
3677;SDS011;1855;50.934;6.958;2023-03-11T02:29:59;5.82;;;2.05;;
3677;SDS011;1855;50.934;6.958;2023-03-11T02:32:26;5.05;;;2.10;;
3677;SDS011;1855;50.934;6.958;2023-03-11T02:34:53;8.10;;;2.15;;
3677;SDS011;1855;50.934;6.958;2023-03-11T02:37:20;5.90;;;2.10;;
3677;SDS011;1855;50.934;6.958;2023-03-11T02:39:49;6.40;;;2.35;;
3677;SDS011;1855;50.934;6.958;2023-03-11T02:42:18;6.97;;;2.00;;
3677;SDS011;1855;50.934;6.958;2023-03-11T02:44:53;2.90;;;1.60;;
3677;SDS011;1855;50.934;6.958;2023-03-11T02:47:24;4.22;;;2.00;;
3677;SDS011;1855;50.934;6.958;2023-03-11T02:49:51;5.95;;;2.08;;
3677;SDS011;1855;50.934;6.958;2023-03-11T02:52:19;5.00;;;2.35;;
3677;SDS011;1855;50.934;6.958;2023-03-11T02:54:47;4.85;;;1.80;;
3677;SDS011;1855;50.934;6.958;2023-03-11T02:57:13;5.20;;;1.80;;
3677;SDS011;1855;50.934;6.958;2023-03-11T02:59:40;4.00;;;1.90;;
3677;SDS011;1855;50.934;6.958;2023-03-11T03:02:08;3.55;;;1.80;;
3677;SDS011;1855;50.934;6.958;2023-03-11T03:04:35;3.88;;;1.60;;
3677;SDS011;1855;50.934;6.958;2023-03-11T03:07:02;4.97;;;1.63;;
3677;SDS011;1855;50.934;6.958;2023-03-11T03:09:28;4.30;;;1.70;;
3677;SDS011;1855;50.934;6.958;2023-03-11T03:11:55;5.10;;;1.70;;
3677;SDS011;1855;50.934;6.958;2023-03-11T03:14:22;4.95;;;1.90;;
3677;SDS011;1855;50.934;6.958;2023-03-11T03:16:49;5.90;;;2.00;;
3677;SDS011;1855;50.934;6.958;2023-03-11T03:19:17;5.47;;;1.90;;
3677;SDS011;1855;50.934;6.958;2023-03-11T03:21:44;3.70;;;1.70;;
3677;SDS011;1855;50.934;6.958;2023-03-11T03:24:10;4.13;;;2.00;;
3677;SDS011;1855;50.934;6.958;2023-03-11T03:26:37;3.85;;;1.77;;
3677;SDS011;1855;50.934;6.958;2023-03-11T03:29:04;3.28;;;1.60;;
3677;SDS011;1855;50.934;6.958;2023-03-11T03:31:31;4.85;;;1.92;;
3677;SDS011;1855;50.934;6.958;2023-03-11T03:33:57;5.90;;;2.10;;
3677;SDS011;1855;50.934;6.958;2023-03-11T03:36:26;4.00;;;2.20;;
3677;SDS011;1855;50.934;6.958;2023-03-11T03:38:53;5.85;;;2.15;;
3677;SDS011;1855;50.934;6.958;2023-03-11T03:41:20;5.88;;;2.05;;
3677;SDS011;1855;50.934;6.958;2023-03-11T03:43:47;3.80;;;1.80;;
3677;SDS011;1855;50.934;6.958;2023-03-11T03:46:14;7.22;;;2.33;;
3677;SDS011;1855;50.934;6.958;2023-03-11T03:48:41;3.60;;;1.98;;
3677;SDS011;1855;50.934;6.958;2023-03-11T03:51:09;6.03;;;1.90;;
3677;SDS011;1855;50.934;6.958;2023-03-11T03:53:38;6.68;;;2.40;;
3677;SDS011;1855;50.934;6.958;2023-03-11T03:56:06;5.32;;;1.77;;
3677;SDS011;1855;50.934;6.958;2023-03-11T03:58:35;6.00;;;2.50;;
3677;SDS011;1855;50.934;6.958;2023-03-11T04:01:02;6.53;;;2.60;;
3677;SDS011;1855;50.934;6.958;2023-03-11T04:03:29;4.13;;;1.90;;
3677;SDS011;1855;50.934;6.958;2023-03-11T04:06:04;4.80;;;1.80;;
3677;SDS011;1855;50.934;6.958;2023-03-11T04:08:32;4.20;;;1.65;;
3677;SDS011;1855;50.934;6.958;2023-03-11T04:11:00;3.95;;;1.73;;
3677;SDS011;1855;50.934;6.958;2023-03-11T04:13:26;3.30;;;1.60;;
3677;SDS011;1855;50.934;6.958;2023-03-11T04:15:53;4.05;;;2.28;;
3677;SDS011;1855;50.934;6.958;2023-03-11T04:18:20;4.20;;;1.70;;
3677;SDS011;1855;50.934;6.958;2023-03-11T04:20:47;5.45;;;2.00;;
3677;SDS011;1855;50.934;6.958;2023-03-11T04:23:14;4.22;;;1.70;;
3677;SDS011;1855;50.934;6.958;2023-03-11T04:25:41;5.80;;;1.60;;
3677;SDS011;1855;50.934;6.958;2023-03-11T04:28:09;3.60;;;1.40;;
3677;SDS011;1855;50.934;6.958;2023-03-11T04:30:36;4.20;;;1.48;;
3677;SDS011;1855;50.934;6.958;2023-03-11T04:33:03;5.13;;;1.67;;
3677;SDS011;1855;50.934;6.958;2023-03-11T04:35:30;4.90;;;1.80;;
3677;SDS011;1855;50.934;6.958;2023-03-11T04:37:57;3.42;;;1.80;;
3677;SDS011;1855;50.934;6.958;2023-03-11T04:40:25;4.05;;;1.98;;
3677;SDS011;1855;50.934;6.958;2023-03-11T04:42:52;4.60;;;2.10;;
3677;SDS011;1855;50.934;6.958;2023-03-11T04:45:20;4.50;;;1.80;;
3677;SDS011;1855;50.934;6.958;2023-03-11T04:47:47;4.43;;;1.60;;
3677;SDS011;1855;50.934;6.958;2023-03-11T04:50:15;4.82;;;1.85;;
3677;SDS011;1855;50.934;6.958;2023-03-11T04:52:42;3.30;;;1.83;;
3677;SDS011;1855;50.934;6.958;2023-03-11T04:55:09;5.95;;;1.80;;
3677;SDS011;1855;50.934;6.958;2023-03-11T04:57:37;3.88;;;1.73;;
3677;SDS011;1855;50.934;6.958;2023-03-11T05:00:05;4.90;;;2.30;;
3677;SDS011;1855;50.934;6.958;2023-03-11T05:02:36;6.30;;;2.05;;
3677;SDS011;1855;50.934;6.958;2023-03-11T05:05:04;4.20;;;1.67;;
3677;SDS011;1855;50.934;6.958;2023-03-11T05:07:31;3.50;;;1.70;;
3677;SDS011;1855;50.934;6.958;2023-03-11T05:09:58;3.90;;;1.90;;
3677;SDS011;1855;50.934;6.958;2023-03-11T05:12:25;5.30;;;2.38;;
3677;SDS011;1855;50.934;6.958;2023-03-11T05:14:52;4.20;;;2.00;;
3677;SDS011;1855;50.934;6.958;2023-03-11T05:17:18;3.60;;;1.90;;
3677;SDS011;1855;50.934;6.958;2023-03-11T05:19:47;3.92;;;1.50;;
3677;SDS011;1855;50.934;6.958;2023-03-11T05:22:13;3.67;;;1.95;;
3677;SDS011;1855;50.934;6.958;2023-03-11T05:24:40;6.10;;;1.77;;
3677;SDS011;1855;50.934;6.958;2023-03-11T05:27:07;4.60;;;2.03;;
3677;SDS011;1855;50.934;6.958;2023-03-11T05:29:34;4.70;;;2.08;;
3677;SDS011;1855;50.934;6.958;2023-03-11T05:32:00;3.83;;;1.80;;
3677;SDS011;1855;50.934;6.958;2023-03-11T05:34:28;4.90;;;2.17;;
3677;SDS011;1855;50.934;6.958;2023-03-11T05:36:56;4.30;;;2.10;;
3677;SDS011;1855;50.934;6.958;2023-03-11T05:39:22;5.10;;;1.98;;
3677;SDS011;1855;50.934;6.958;2023-03-11T05:41:49;7.25;;;2.20;;
3677;SDS011;1855;50.934;6.958;2023-03-11T05:44:16;4.60;;;2.10;;
3677;SDS011;1855;50.934;6.958;2023-03-11T05:46:43;5.47;;;1.80;;
3677;SDS011;1855;50.934;6.958;2023-03-11T05:49:09;5.20;;;3.10;;
3677;SDS011;1855;50.934;6.958;2023-03-11T05:51:36;5.97;;;2.10;;
3677;SDS011;1855;50.934;6.958;2023-03-11T05:54:04;6.13;;;2.10;;
3677;SDS011;1855;50.934;6.958;2023-03-11T05:56:35;4.88;;;2.22;;
3677;SDS011;1855;50.934;6.958;2023-03-11T05:59:02;6.95;;;2.00;;
3677;SDS011;1855;50.934;6.958;2023-03-11T06:01:29;5.38;;;2.42;;
3677;SDS011;1855;50.934;6.958;2023-03-11T06:03:56;3.92;;;2.28;;
3677;SDS011;1855;50.934;6.958;2023-03-11T06:06:22;5.47;;;2.22;;
3677;SDS011;1855;50.934;6.958;2023-03-11T06:08:49;6.88;;;2.03;;
3677;SDS011;1855;50.934;6.958;2023-03-11T06:11:17;4.15;;;2.10;;
3677;SDS011;1855;50.934;6.958;2023-03-11T06:13:44;4.43;;;2.30;;
3677;SDS011;1855;50.934;6.958;2023-03-11T06:16:11;5.57;;;2.55;;
3677;SDS011;1855;50.934;6.958;2023-03-11T06:18:38;6.40;;;2.43;;
3677;SDS011;1855;50.934;6.958;2023-03-11T06:21:05;6.15;;;1.95;;
3677;SDS011;1855;50.934;6.958;2023-03-11T06:23:32;4.53;;;2.50;;
3677;SDS011;1855;50.934;6.958;2023-03-11T06:26:00;5.78;;;2.50;;
3677;SDS011;1855;50.934;6.958;2023-03-11T06:28:30;5.70;;;2.53;;
3677;SDS011;1855;50.934;6.958;2023-03-11T06:31:05;3.85;;;1.90;;
3677;SDS011;1855;50.934;6.958;2023-03-11T06:33:32;5.22;;;2.20;;
3677;SDS011;1855;50.934;6.958;2023-03-11T06:35:59;5.43;;;2.50;;
3677;SDS011;1855;50.934;6.958;2023-03-11T06:38:27;5.40;;;2.30;;
3677;SDS011;1855;50.934;6.958;2023-03-11T06:40:57;5.72;;;2.10;;
3677;SDS011;1855;50.934;6.958;2023-03-11T06:43:24;5.55;;;3.00;;
3677;SDS011;1855;50.934;6.958;2023-03-11T06:45:52;6.38;;;2.40;;
3677;SDS011;1855;50.934;6.958;2023-03-11T06:48:19;4.68;;;1.70;;
3677;SDS011;1855;50.934;6.958;2023-03-11T06:50:52;5.20;;;1.90;;
3677;SDS011;1855;50.934;6.958;2023-03-11T06:53:19;4.25;;;3.00;;
3677;SDS011;1855;50.934;6.958;2023-03-11T06:55:56;5.35;;;2.40;;
3677;SDS011;1855;50.934;6.958;2023-03-11T06:58:23;5.18;;;2.60;;
3677;SDS011;1855;50.934;6.958;2023-03-11T07:00:52;4.03;;;1.92;;
3677;SDS011;1855;50.934;6.958;2023-03-11T07:03:19;4.50;;;2.00;;
3677;SDS011;1855;50.934;6.958;2023-03-11T07:05:48;5.15;;;2.10;;
3677;SDS011;1855;50.934;6.958;2023-03-11T07:08:16;5.90;;;2.60;;
3677;SDS011;1855;50.934;6.958;2023-03-11T07:10:43;6.15;;;2.70;;
3677;SDS011;1855;50.934;6.958;2023-03-11T07:13:10;4.72;;;2.70;;
3677;SDS011;1855;50.934;6.958;2023-03-11T07:15:37;4.70;;;2.00;;
3677;SDS011;1855;50.934;6.958;2023-03-11T07:18:06;4.72;;;2.00;;
3677;SDS011;1855;50.934;6.958;2023-03-11T07:20:33;4.60;;;2.17;;
3677;SDS011;1855;50.934;6.958;2023-03-11T07:23:00;6.75;;;2.90;;
3677;SDS011;1855;50.934;6.958;2023-03-11T07:25:28;4.22;;;2.58;;
3677;SDS011;1855;50.934;6.958;2023-03-11T07:27:55;5.55;;;2.30;;
3677;SDS011;1855;50.934;6.958;2023-03-11T07:30:22;4.38;;;2.60;;
3677;SDS011;1855;50.934;6.958;2023-03-11T07:32:49;6.45;;;2.42;;
3677;SDS011;1855;50.934;6.958;2023-03-11T07:35:17;3.97;;;2.20;;
3677;SDS011;1855;50.934;6.958;2023-03-11T07:37:43;4.28;;;2.60;;
3677;SDS011;1855;50.934;6.958;2023-03-11T07:40:11;5.68;;;2.13;;
3677;SDS011;1855;50.934;6.958;2023-03-11T07:42:38;4.60;;;2.50;;
3677;SDS011;1855;50.934;6.958;2023-03-11T07:45:05;5.75;;;2.40;;
3677;SDS011;1855;50.934;6.958;2023-03-11T07:47:33;5.45;;;3.13;;
3677;SDS011;1855;50.934;6.958;2023-03-11T07:50:00;6.63;;;2.58;;
3677;SDS011;1855;50.934;6.958;2023-03-11T07:52:29;4.18;;;2.40;;
3677;SDS011;1855;50.934;6.958;2023-03-11T07:54:57;5.95;;;2.33;;
3677;SDS011;1855;50.934;6.958;2023-03-11T07:57:23;4.68;;;2.30;;
3677;SDS011;1855;50.934;6.958;2023-03-11T07:59:50;4.90;;;2.47;;
3677;SDS011;1855;50.934;6.958;2023-03-11T08:02:17;7.60;;;3.10;;
3677;SDS011;1855;50.934;6.958;2023-03-11T08:04:44;5.05;;;2.30;;
3677;SDS011;1855;50.934;6.958;2023-03-11T08:07:11;5.50;;;2.40;;
3677;SDS011;1855;50.934;6.958;2023-03-11T08:09:39;6.93;;;3.17;;
3677;SDS011;1855;50.934;6.958;2023-03-11T08:12:06;5.85;;;2.50;;
3677;SDS011;1855;50.934;6.958;2023-03-11T08:14:34;4.95;;;2.53;;
3677;SDS011;1855;50.934;6.958;2023-03-11T08:17:01;4.45;;;2.38;;
3677;SDS011;1855;50.934;6.958;2023-03-11T08:19:28;6.38;;;2.40;;
3677;SDS011;1855;50.934;6.958;2023-03-11T08:21:55;4.78;;;2.03;;
3677;SDS011;1855;50.934;6.958;2023-03-11T08:24:22;5.47;;;2.40;;
3677;SDS011;1855;50.934;6.958;2023-03-11T08:26:50;5.40;;;2.50;;
3677;SDS011;1855;50.934;6.958;2023-03-11T08:29:17;8.20;;;2.60;;
3677;SDS011;1855;50.934;6.958;2023-03-11T08:31:43;4.38;;;2.17;;
3677;SDS011;1855;50.934;6.958;2023-03-11T08:34:10;4.15;;;2.30;;
3677;SDS011;1855;50.934;6.958;2023-03-11T08:36:41;5.18;;;2.10;;
3677;SDS011;1855;50.934;6.958;2023-03-11T08:39:08;5.45;;;2.28;;
3677;SDS011;1855;50.934;6.958;2023-03-11T08:41:35;4.00;;;1.75;;
3677;SDS011;1855;50.934;6.958;2023-03-11T08:44:03;4.70;;;2.05;;
3677;SDS011;1855;50.934;6.958;2023-03-11T08:46:32;4.28;;;1.70;;
3677;SDS011;1855;50.934;6.958;2023-03-11T08:49:02;5.53;;;1.98;;
3677;SDS011;1855;50.934;6.958;2023-03-11T08:51:30;5.90;;;2.40;;
3677;SDS011;1855;50.934;6.958;2023-03-11T08:53:58;3.25;;;2.10;;
3677;SDS011;1855;50.934;6.958;2023-03-11T08:56:25;4.43;;;2.00;;
3677;SDS011;1855;50.934;6.958;2023-03-11T08:58:52;7.20;;;2.40;;
3677;SDS011;1855;50.934;6.958;2023-03-11T09:01:20;3.85;;;2.20;;
3677;SDS011;1855;50.934;6.958;2023-03-11T09:03:47;3.95;;;1.90;;
3677;SDS011;1855;50.934;6.958;2023-03-11T09:06:14;5.40;;;2.45;;
3677;SDS011;1855;50.934;6.958;2023-03-11T09:08:43;4.60;;;2.40;;
3677;SDS011;1855;50.934;6.958;2023-03-11T09:11:11;5.57;;;2.20;;
3677;SDS011;1855;50.934;6.958;2023-03-11T09:13:39;4.30;;;2.00;;
3677;SDS011;1855;50.934;6.958;2023-03-11T09:16:06;4.07;;;1.92;;
3677;SDS011;1855;50.934;6.958;2023-03-11T09:18:35;5.45;;;2.10;;
3677;SDS011;1855;50.934;6.958;2023-03-11T09:21:02;4.22;;;1.90;;
3677;SDS011;1855;50.934;6.958;2023-03-11T09:23:29;2.80;;;1.50;;
3677;SDS011;1855;50.934;6.958;2023-03-11T09:25:56;3.67;;;1.50;;
3677;SDS011;1855;50.934;6.958;2023-03-11T09:28:22;4.20;;;1.60;;
3677;SDS011;1855;50.934;6.958;2023-03-11T09:30:49;2.80;;;1.50;;
3677;SDS011;1855;50.934;6.958;2023-03-11T09:33:16;4.60;;;1.30;;
3677;SDS011;1855;50.934;6.958;2023-03-11T09:35:44;1.48;;;0.95;;
3677;SDS011;1855;50.934;6.958;2023-03-11T09:38:11;4.20;;;1.93;;
3677;SDS011;1855;50.934;6.958;2023-03-11T09:40:43;1.92;;;1.40;;
3677;SDS011;1855;50.934;6.958;2023-03-11T09:43:16;1.55;;;0.80;;
3677;SDS011;1855;50.934;6.958;2023-03-11T09:45:52;2.40;;;1.00;;
3677;SDS011;1855;50.934;6.958;2023-03-11T09:48:26;1.85;;;0.90;;
3677;SDS011;1855;50.934;6.958;2023-03-11T09:51:04;2.67;;;1.00;;
3677;SDS011;1855;50.934;6.958;2023-03-11T09:53:38;1.80;;;1.25;;
3677;SDS011;1855;50.934;6.958;2023-03-11T09:56:07;2.65;;;1.40;;
3677;SDS011;1855;50.934;6.958;2023-03-11T09:58:36;3.50;;;1.20;;
3677;SDS011;1855;50.934;6.958;2023-03-11T10:01:09;3.40;;;0.93;;
3677;SDS011;1855;50.934;6.958;2023-03-11T10:03:41;2.42;;;1.20;;
3677;SDS011;1855;50.934;6.958;2023-03-11T10:06:14;3.07;;;1.10;;
3677;SDS011;1855;50.934;6.958;2023-03-11T10:08:44;2.38;;;1.00;;
3677;SDS011;1855;50.934;6.958;2023-03-11T10:11:16;3.40;;;1.50;;
3677;SDS011;1855;50.934;6.958;2023-03-11T10:13:54;2.33;;;1.50;;
3677;SDS011;1855;50.934;6.958;2023-03-11T10:16:28;1.80;;;0.90;;
3677;SDS011;1855;50.934;6.958;2023-03-11T10:19:01;2.40;;;1.10;;
3677;SDS011;1855;50.934;6.958;2023-03-11T10:21:38;3.00;;;1.30;;
3677;SDS011;1855;50.934;6.958;2023-03-11T10:24:13;3.60;;;1.40;;
3677;SDS011;1855;50.934;6.958;2023-03-11T10:26:48;3.90;;;1.00;;
3677;SDS011;1855;50.934;6.958;2023-03-11T10:29:19;3.58;;;1.30;;
3677;SDS011;1855;50.934;6.958;2023-03-11T10:31:52;1.30;;;0.77;;
3677;SDS011;1855;50.934;6.958;2023-03-11T10:34:24;1.98;;;1.00;;
3677;SDS011;1855;50.934;6.958;2023-03-11T10:37:00;2.90;;;1.20;;
3677;SDS011;1855;50.934;6.958;2023-03-11T10:39:31;1.50;;;0.80;;
3677;SDS011;1855;50.934;6.958;2023-03-11T10:41:59;2.80;;;1.20;;
3677;SDS011;1855;50.934;6.958;2023-03-11T10:44:30;2.95;;;1.00;;
3677;SDS011;1855;50.934;6.958;2023-03-11T10:46:59;2.63;;;1.00;;
3677;SDS011;1855;50.934;6.958;2023-03-11T10:49:26;3.22;;;0.98;;
3677;SDS011;1855;50.934;6.958;2023-03-11T10:51:53;1.55;;;0.77;;
3677;SDS011;1855;50.934;6.958;2023-03-11T10:54:26;1.80;;;0.80;;
3677;SDS011;1855;50.934;6.958;2023-03-11T10:56:57;2.50;;;1.00;;
3677;SDS011;1855;50.934;6.958;2023-03-11T10:59:27;4.38;;;2.38;;
3677;SDS011;1855;50.934;6.958;2023-03-11T11:01:56;2.45;;;1.10;;
3677;SDS011;1855;50.934;6.958;2023-03-11T11:04:27;5.05;;;1.50;;
3677;SDS011;1855;50.934;6.958;2023-03-11T11:06:55;3.65;;;1.10;;
3677;SDS011;1855;50.934;6.958;2023-03-11T11:09:23;2.50;;;1.30;;
3677;SDS011;1855;50.934;6.958;2023-03-11T11:12:01;3.15;;;1.20;;
3677;SDS011;1855;50.934;6.958;2023-03-11T11:14:46;2.43;;;1.20;;
3677;SDS011;1855;50.934;6.958;2023-03-11T11:17:18;4.22;;;1.30;;
3677;SDS011;1855;50.934;6.958;2023-03-11T11:19:49;2.20;;;1.20;;
3677;SDS011;1855;50.934;6.958;2023-03-11T11:22:17;1.77;;;1.10;;
3677;SDS011;1855;50.934;6.958;2023-03-11T11:24:46;2.97;;;1.20;;
3677;SDS011;1855;50.934;6.958;2023-03-11T11:27:17;2.97;;;1.57;;
3677;SDS011;1855;50.934;6.958;2023-03-11T11:29:46;2.70;;;1.25;;
3677;SDS011;1855;50.934;6.958;2023-03-11T11:32:29;2.22;;;1.10;;
3677;SDS011;1855;50.934;6.958;2023-03-11T11:34:57;2.55;;;1.23;;
3677;SDS011;1855;50.934;6.958;2023-03-11T11:37:25;2.90;;;1.23;;
3677;SDS011;1855;50.934;6.958;2023-03-11T11:39:57;3.45;;;1.30;;
3677;SDS011;1855;50.934;6.958;2023-03-11T11:42:35;2.38;;;1.40;;
3677;SDS011;1855;50.934;6.958;2023-03-11T11:45:05;4.07;;;1.70;;
3677;SDS011;1855;50.934;6.958;2023-03-11T11:47:40;2.80;;;1.52;;
3677;SDS011;1855;50.934;6.958;2023-03-11T11:50:12;5.03;;;1.60;;
3677;SDS011;1855;50.934;6.958;2023-03-11T11:52:43;3.30;;;1.40;;
3677;SDS011;1855;50.934;6.958;2023-03-11T11:55:16;2.35;;;1.20;;
3677;SDS011;1855;50.934;6.958;2023-03-11T11:57:47;2.03;;;1.40;;
3677;SDS011;1855;50.934;6.958;2023-03-11T12:00:16;3.40;;;1.50;;
3677;SDS011;1855;50.934;6.958;2023-03-11T12:02:51;2.17;;;1.30;;
3677;SDS011;1855;50.934;6.958;2023-03-11T12:05:28;2.67;;;1.40;;
3677;SDS011;1855;50.934;6.958;2023-03-11T12:08:00;3.00;;;1.52;;
3677;SDS011;1855;50.934;6.958;2023-03-11T12:10:36;4.00;;;1.50;;
3677;SDS011;1855;50.934;6.958;2023-03-11T12:16:13;2.70;;;1.75;;
3677;SDS011;1855;50.934;6.958;2023-03-11T12:18:49;2.72;;;1.30;;
3677;SDS011;1855;50.934;6.958;2023-03-11T12:21:24;3.00;;;1.30;;
3677;SDS011;1855;50.934;6.958;2023-03-11T12:24:03;3.17;;;1.65;;
3677;SDS011;1855;50.934;6.958;2023-03-11T12:26:37;3.22;;;1.60;;
3677;SDS011;1855;50.934;6.958;2023-03-11T12:29:09;3.70;;;1.60;;
3677;SDS011;1855;50.934;6.958;2023-03-11T12:31:40;3.47;;;1.60;;
3677;SDS011;1855;50.934;6.958;2023-03-11T12:34:08;2.88;;;1.48;;
3677;SDS011;1855;50.934;6.958;2023-03-11T12:36:38;2.58;;;1.17;;
3677;SDS011;1855;50.934;6.958;2023-03-11T12:39:18;2.10;;;1.38;;
3677;SDS011;1855;50.934;6.958;2023-03-11T12:41:47;1.92;;;1.40;;
3677;SDS011;1855;50.934;6.958;2023-03-11T12:44:34;2.60;;;1.70;;
3677;SDS011;1855;50.934;6.958;2023-03-11T12:47:15;2.10;;;1.80;;
3677;SDS011;1855;50.934;6.958;2023-03-11T12:49:44;3.00;;;1.48;;
3677;SDS011;1855;50.934;6.958;2023-03-11T12:52:22;2.83;;;1.25;;
3677;SDS011;1855;50.934;6.958;2023-03-11T12:57:49;2.35;;;1.30;;
3677;SDS011;1855;50.934;6.958;2023-03-11T13:00:27;2.65;;;1.70;;
3677;SDS011;1855;50.934;6.958;2023-03-11T13:03:11;2.72;;;1.10;;
3677;SDS011;1855;50.934;6.958;2023-03-11T13:05:52;3.67;;;1.20;;
3677;SDS011;1855;50.934;6.958;2023-03-11T13:08:23;2.92;;;1.40;;
3677;SDS011;1855;50.934;6.958;2023-03-11T13:10:52;2.30;;;1.20;;
3677;SDS011;1855;50.934;6.958;2023-03-11T13:13:21;3.00;;;1.30;;
3677;SDS011;1855;50.934;6.958;2023-03-11T13:15:55;3.15;;;1.30;;
3677;SDS011;1855;50.934;6.958;2023-03-11T13:18:24;2.50;;;1.20;;
3677;SDS011;1855;50.934;6.958;2023-03-11T13:20:52;3.00;;;1.00;;
3677;SDS011;1855;50.934;6.958;2023-03-11T13:23:25;3.00;;;1.30;;
3677;SDS011;1855;50.934;6.958;2023-03-11T13:26:03;1.90;;;1.00;;
3677;SDS011;1855;50.934;6.958;2023-03-11T13:28:50;2.80;;;1.23;;
3677;SDS011;1855;50.934;6.958;2023-03-11T13:31:40;2.65;;;1.23;;
3677;SDS011;1855;50.934;6.958;2023-03-11T13:34:15;3.63;;;2.15;;
3677;SDS011;1855;50.934;6.958;2023-03-11T13:36:52;3.38;;;1.60;;
3677;SDS011;1855;50.934;6.958;2023-03-11T13:39:36;3.15;;;1.30;;
3677;SDS011;1855;50.934;6.958;2023-03-11T13:42:14;3.70;;;1.30;;
3677;SDS011;1855;50.934;6.958;2023-03-11T13:44:47;2.40;;;1.67;;
3677;SDS011;1855;50.934;6.958;2023-03-11T13:47:15;3.00;;;1.50;;
3677;SDS011;1855;50.934;6.958;2023-03-11T13:49:45;1.90;;;1.10;;
3677;SDS011;1855;50.934;6.958;2023-03-11T13:52:21;2.88;;;1.30;;
3677;SDS011;1855;50.934;6.958;2023-03-11T13:54:52;3.80;;;1.20;;
3677;SDS011;1855;50.934;6.958;2023-03-11T13:57:26;3.53;;;1.30;;
3677;SDS011;1855;50.934;6.958;2023-03-11T13:59:54;2.88;;;1.20;;
3677;SDS011;1855;50.934;6.958;2023-03-11T14:02:23;3.35;;;2.20;;
3677;SDS011;1855;50.934;6.958;2023-03-11T14:04:53;2.80;;;1.60;;
3677;SDS011;1855;50.934;6.958;2023-03-11T14:07:24;2.40;;;1.10;;
3677;SDS011;1855;50.934;6.958;2023-03-11T14:12:55;2.80;;;1.20;;
3677;SDS011;1855;50.934;6.958;2023-03-11T14:15:30;2.60;;;1.40;;
3677;SDS011;1855;50.934;6.958;2023-03-11T14:18:24;3.30;;;1.17;;
3677;SDS011;1855;50.934;6.958;2023-03-11T14:20:55;2.08;;;1.10;;
3677;SDS011;1855;50.934;6.958;2023-03-11T14:23:24;3.58;;;1.10;;
3677;SDS011;1855;50.934;6.958;2023-03-11T14:25:58;2.08;;;1.40;;
3677;SDS011;1855;50.934;6.958;2023-03-11T14:28:27;3.22;;;1.40;;
3677;SDS011;1855;50.934;6.958;2023-03-11T14:30:58;3.00;;;1.30;;
3677;SDS011;1855;50.934;6.958;2023-03-11T14:33:27;3.40;;;1.60;;
3677;SDS011;1855;50.934;6.958;2023-03-11T14:35:55;1.90;;;1.30;;
3677;SDS011;1855;50.934;6.958;2023-03-11T14:38:24;2.58;;;1.08;;
3677;SDS011;1855;50.934;6.958;2023-03-11T14:40:53;2.42;;;1.20;;
3677;SDS011;1855;50.934;6.958;2023-03-11T14:43:21;1.87;;;1.27;;
3677;SDS011;1855;50.934;6.958;2023-03-11T14:45:48;2.40;;;1.15;;
3677;SDS011;1855;50.934;6.958;2023-03-11T14:48:18;3.17;;;1.35;;
3677;SDS011;1855;50.934;6.958;2023-03-11T14:50:50;3.85;;;2.33;;
3677;SDS011;1855;50.934;6.958;2023-03-11T14:53:20;2.50;;;1.60;;
3677;SDS011;1855;50.934;6.958;2023-03-11T14:55:50;2.50;;;1.10;;
3677;SDS011;1855;50.934;6.958;2023-03-11T14:58:22;1.85;;;1.10;;
3677;SDS011;1855;50.934;6.958;2023-03-11T15:00:56;3.33;;;1.45;;
3677;SDS011;1855;50.934;6.958;2023-03-11T15:03:28;3.70;;;1.75;;
3677;SDS011;1855;50.934;6.958;2023-03-11T15:05:57;1.90;;;1.30;;
3677;SDS011;1855;50.934;6.958;2023-03-11T15:08:29;1.60;;;1.10;;
3677;SDS011;1855;50.934;6.958;2023-03-11T15:10:59;2.53;;;1.40;;
3677;SDS011;1855;50.934;6.958;2023-03-11T15:13:39;2.35;;;1.30;;
3677;SDS011;1855;50.934;6.958;2023-03-11T15:16:20;2.60;;;1.30;;
3677;SDS011;1855;50.934;6.958;2023-03-11T15:18:53;3.00;;;2.47;;
3677;SDS011;1855;50.934;6.958;2023-03-11T15:21:22;3.45;;;1.33;;
3677;SDS011;1855;50.934;6.958;2023-03-11T15:23:51;1.90;;;1.40;;
3677;SDS011;1855;50.934;6.958;2023-03-11T15:26:24;2.33;;;1.65;;
3677;SDS011;1855;50.934;6.958;2023-03-11T15:28:54;2.30;;;1.60;;
3677;SDS011;1855;50.934;6.958;2023-03-11T15:31:26;1.88;;;1.60;;
3677;SDS011;1855;50.934;6.958;2023-03-11T15:36:56;4.60;;;1.60;;
3677;SDS011;1855;50.934;6.958;2023-03-11T15:39:41;3.75;;;1.40;;
3677;SDS011;1855;50.934;6.958;2023-03-11T15:42:11;2.10;;;1.40;;
3677;SDS011;1855;50.934;6.958;2023-03-11T15:44:56;4.88;;;1.60;;